NWS Home NWS Lubbock West Texas Mesonet Latest Conditions as of 0720 PM, Tue Apr 25, 2017

Latest   N   C   S   Daily Sum   3hrΔ   24hrΔ   Soil Data 
Site Map   24hr Precip   72hr Precip   Google Plot


Station Time of Last Temp Dew Pt. RH Wind Direction Wind Speed Wind Gust Max Wind Max Temp Min Temp Max RH Min RH Altimeter 1HR Rain Today's Rain Solar Rad Red Flag
Abernathy 5ENE  07:15 PM 79 30 17% W1824 32 mph 306° @ 0455 PM 84 58 62 13 29.47" 0 0 166  
Aiken 3WSW  07:15 PM 79 34 20% W1926 34 mph 257° @ 1225 PM 83 57 62 15 29.48" 0 0 202  
Amarillo 15NNW   07:15 PM 61 48 62% NE2126 30 mph 16° @ 1234 PM 74 53 62 16 29.48" 0 0 61  
Amarillo 7SSE  07:15 PM 72 36 27% W2230 36 mph 253° @ 0540 PM 75 54 44 20 29.47" 0 0 108  
Amarillo 9NNE  07:15 PM 63 48 57% NE2226 29 mph 24° @ 0649 PM 73 56 57 16 29.48" 0 0 182  
Amherst 1NE  07:15 PM 75 29 19% W2228 39 mph 288° @ 0205 PM 80 60 27 13 29.48" 0 0 95 30
Andrews 2E  07:15 PM 85 26 12% W1524 42 mph 245° @ 1030 AM 88 58 60 11 29.47" 0 0 187 135
Anton 6SSW  07:15 PM 78 30 17% W1619 34 mph 298° @ 0400 PM 84 55 48 12 29.47" 0 0 82 25
Aspermont 3NE  07:15 PM 89 31 13% SW1319 36 mph 234° @ 0510 PM 94 67 55 11 29.36" 0 0 57 35
Big Bend NP - Persimmon Gap  07:15 PM 94 10 4% SW2327 35 mph 238° @ 0647 PM 98 61 54 4 29.49" 0 0 129 64
Big Lake 1WNW  07:15 PM 90 24 9% S1113 35 mph 259° @ 0457 PM 95 62 71 8 29.46" 0 0 129 10
Bootleg 11WNW  07:15 PM 69 35 28% W2327 56 mph 259° @ 0546 PM 73 56 32 20 29.52" 0 0 195  
Boys Ranch 1WSW  07:15 PM 63 47 55% NE1418 26 mph 52° @ 0651 PM 75 46 58 14 29.48" 0 0 128  
Brownfield 2S  07:15 PM 82 30 15% W2032 46 mph 248° @ 0305 PM 87 59 62 13 29.47" 0 0 133 340
Canadian 6E  07:15 PM 59 48 68% N1518 29 mph 360° @ 0626 PM 72 52 75 33 29.48" 0 0 32  
Caprock Canyons State Park  07:15 PM 73 42 33% NW34 30 mph 266° @ 0123 PM 81 60 55 17 29.44" 0 0 80  
Childress 2NNE  07:15 PM 77 41 28% NW912 33 mph 189° @ 0245 AM 85 64 62 19 29.41" 0 0 49  
Clarendon 2WSW  07:15 PM 73 39 29% SW57 33 mph 272° @ 0525 PM 80 59 50 19 29.45" 0 0 168  
Claude 12SW  07:15 PM 73 37 27% W1320 37 mph 250° @ 0635 PM 76 66 34 13 29.46" 0 0 253 24
Clyde 2WNW  07:15 PM 88 44 21% S1115 37 mph 234° @ 0319 PM 94 65 65 15 29.42" 0 0 146 2
Coyanosa 2N  07:15 PM 93 25 9% W1922 38 mph 268° @ 0241 PM 97 60 44 6 29.43" 0 0 83 193
Crowell 1E  07:15 PM 81 44 27% N1012 26 mph 230° @ 0927 AM 93 66 61 14 29.37" 0 0 59  
Dell City  07:15 PM 83 30 15% W2024 53 mph 256° @ 0237 PM 85 69 26 12 29.54" 0 0 207 508
Denver City 7WNW  07:15 PM 79 25 14% W2228 50 mph 254° @ 0505 PM 84 60 29 12 29.49" 0 0 82 540
Dimmitt 2NE  07:15 PM 72 36 28% W2632 47 mph 252° @ 0620 PM 75 60 29 18 29.49" 0 0 209  
Dora NM 2SW  07:15 PM 73 28 18% W1623 38 mph 287° @ 0415 PM 77 56 25 13 29.52" 0 0 163 40
Dozier 3W  07:15 PM 69 52 55% N810 25 mph 258° @ 0125 PM 80 59 64 22 29.45" 0 0 16  
Floydada 2NNE  07:15 PM 75 31 20% W911 32 mph 193° @ 1255 AM 84 59 63 11 29.46" 0 0 145  
Fluvanna 3WNW  07:15 PM 85 27 12% W1724 42 mph 230° @ 0345 PM 90 60 65 11 29.44" 0 0 68 340
Fort Chadbourne  07:15 PM 88 44 21% S1013 30 mph 236° @ 0124 PM 93 60 77 15 29.41" 0 0 159  
Fort Lancaster  07:15 PM 92 43 19% S1823 30 mph 191° @ 0308 PM 97 63 71 7 29.44" 0 0 181 13
Fort Lewis CO  07:15 PM 38 29 69% W1215 38 mph 298° @ 0426 PM 51 36 92 33 29.74" 0 0 34  
Fort McKavett  07:15 PM 91 39 17% SW1219 27 mph 212° @ 0638 PM 93 60 82 12 29.48" 0 0 186  
Friona 2NE  07:15 PM 71 34 26% W2433 52 mph 263° @ 0520 PM 75 54 31 16 29.50" 0 0 209  
Gail 2ESE  07:15 PM 85 32 15% W1218 37 mph 245° @ 0205 PM 90 60 68 13 29.43" 0 0 127 35
Goodlett 3W  07:15 PM 77 44 31% N89 32 mph 193° @ 0205 AM 87 64 63 16 29.38" 0 0 48  
Goodnight  07:15 PM 75 39 27% W2427 33 mph 254° @ 0504 PM 79 56 39 17 29.47" 0 0 148  
Graham 5SSW  07:15 PM 85 26 12% W2231 48 mph 241° @ 0555 PM 88 62 55 12 29.44" 0 0 107 265
Guadalupe Mtns Natl Park  07:15 PM 72 22 15% NW1936 69 mph 282° @ 1004 AM 75 62 28 12 29.65" 0 0 116 137
Guthrie 10WSW  07:15 PM 78 40 26% NW1014 36 mph 231° @ 0435 PM 91 63 63 12 29.41" 0 0 69 10
Hart 3N  07:15 PM 74 34 23% W2935 44 mph 259° @ 0450 PM 80 56 33 16 29.48" 0 0 231  
Haskell 1NW  07:15 PM 90 29 11% SW1723 37 mph 250° @ 0425 PM 96 64 62 10 29.35" 0 0 56 115
Hereford 2NW  07:15 PM 71 33 25% W2636 47 mph 250° @ 0450 PM 76 58 37 18 29.48" 0 0 216  
Hobbs NM 5NW  07:15 PM 81 25 13% W2632 48 mph 243° @ 0244 PM 85 66 16 10 29.53" 0 0 190 496
Jayton 1SSE  07:15 PM 89 30 12% W1927 38 mph 263° @ 0705 PM 91 65 60 12 29.38" 0 0 60 15
Junction 1SSW  07:15 PM 90 45 21% S912 23 mph 190° @ 0642 PM 95 59 89 19 29.47" 0 0 98  
Knox City 3NW  07:15 PM 90 33 14% SW1521 39 mph 237° @ 0605 PM 95 63 64 11 29.33" 0 0 69  
Lake Alan Henry 1NW  07:15 PM 87 25 10% W1721 39 mph 253° @ 0550 PM 92 65 55 10 29.41" 0 0 44 159
Lamesa 2SE  07:15 PM 85 28 13% W1927 47 mph 244° @ 0410 PM 89 57 72 12 29.46" 0 0 183 145
Levelland 4S  07:15 PM 74 31 21% NW68 35 mph 285° @ 0435 PM 86 54 46 12 29.48" 0 0 65 30
Lomax 1SSE  07:15 PM 89 30 12% W2125 41 mph 251° @ 0427 PM 94 64 59 9 29.43" 0 0 136 307
Lubbock 3WNW TTU  07:15 PM 81 28 15% W1521 31 mph 308° @ 0440 PM 87 60 56 11 29.46" 0 0 206  
McCamey 1SSW  07:15 PM 96 25 8% W1417 33 mph 226° @ 1214 PM 97 61 69 7 29.42" 0 0 209 16
McLean 1E  07:15 PM 62 52 70% NE1317 36 mph 286° @ 1155 AM 80 58 70 17 29.45" 0 0 104  
Memphis 1NE  07:15 PM 79 36 22% W1521 24 mph 271° @ 0710 PM 82 63 65 19 29.40" 0 0 23  
Menard 2NW   07:15 PM 91 37 15% SW710 25 mph 240° @ 0221 PM 93 58 86 13 29.46" 0 0 147  
Mertzon 3NNE  07:15 PM 91 27 10% SW1621 30 mph 193° @ 0651 PM 95 63 70 10 29.44" 0 0 127  
Morton 1ENE  07:15 PM 77 24 14% W1927 32 mph 286° @ 0300 PM 82 60 27 10 29.49" 0 0 90 10
Muleshoe 2SSW  07:15 PM 73 33 23% W1722 46 mph 263° @ 0505 PM 79 53 34 12 29.50" 0 0 156  
New Home  07:15 PM 81 34 18% NW1114 46 mph 248° @ 0443 PM 90 57 66 12 29.48" 0 0 198 305
Northfield 1S  07:15 PM 76 45 34% S47 38 mph 193° @ 1205 AM 87 64 56 16 29.42" 0 0 53  
O'Donnell 1N  07:15 PM 84 23 11% W2632 49 mph 248° @ 0515 PM 88 57 66 10 29.45" 0 0 146 525
Odell 4ENE  07:15 PM 78 55 45% N1315 27 mph 214° @ 0932 AM 90 65 65 17 29.38" 0 0 44  
Olton 6S  07:15 PM 77 30 18% W2127 37 mph 288° @ 0405 PM 81 55 36 13 29.47" 0 0 217  
Paducah 10SW  07:15 PM 75 41 30% NW1014 30 mph 199° @ 1220 AM 89 65 61 13 29.41" 0 0 37  
Palo Duro Canyon SP Floor  07:15 PM 78 38 24% W1724 32 mph 313° @ 0545 PM 80 66 35 15 29.43" 0 0 287  
Palo Duro Canyon State Park Rim  07:15 PM 74 37 26% W2130 38 mph 243° @ 0600 PM 77 63 36 19 29.47" 0 0 218  
Pampa 2E  07:15 PM 58 48 71% N2026 27 mph 313° @ 0125 PM 75 56 74 22 29.49" 0 0 63  
Panhandle 1SSW  07:15 PM 62 48 60% N1924 49 mph 292° @ 1230 PM 77 54 61 24 29.51" 0 0 261  
Plains 3N  07:15 PM 81 26 14% SW1623 42 mph 242° @ 0230 PM 86 60 26 12 29.49" 0 0 203 260
Plainview 1S  07:15 PM 77 34 21% W1221 34 mph 275° @ 0705 PM 81 56 53 16 29.46" 0 0 213  
Post 1NE  07:15 PM 84 36 18% W68 44 mph 236° @ 0515 PM 90 65 51 11 29.43" 0 0 195 225
Ralls 1SE  07:15 PM 77 36 23% NW56 31 mph 313° @ 0540 PM 85 57 65 13 29.46" 0 0 85  
Reese Center  07:15 PM 77 27 16% W1114 33 mph 278° @ 0545 PM 83 55 65 12 29.47" 0 0 69  
Roaring Springs 3N  07:15 PM 72 44 37% NE89 35 mph 201° @ 0120 AM 87 62 66 14 29.44" 0 0 31  
San Angelo 7NW  07:15 PM 89 30 12% S1013 24 mph 237° @ 0145 PM 94 65 62 10 29.42" 0 0 95  
Seagraves 1SW  07:15 PM 82 26 13% W2432 48 mph 236° @ 0410 PM 88 55 57 11 29.48" 0 0 181 515
Seminole 2NNE  07:15 PM 83 24 12% W2229 46 mph 242° @ 0205 PM 86 57 59 11 29.47" 0 0 235 380
Seymour 3NW  07:15 PM 88 40 19% NW712 32 mph 244° @ 0535 PM 95 66 64 13 29.33" 0 0 43 25
Sierra Blanca 1SSE  07:15 PM 80 29 16% W2429 48 mph 287° @ 0553 PM 86 66 25 9 29.60" 0 0 158 339
Silverton 7ESE  07:15 PM 75 36 25% W1824 33 mph 272° @ 1245 PM 81 58 53 16 29.46" 0 0 117  
Slaton 2NE  07:15 PM 83 27 13% W1419 38 mph 235° @ 0505 PM 87 59 64 11 29.45" 0 0 163 90
Snyder 3E  07:15 PM 87 31 14% W1421 39 mph 252° @ 0225 PM 90 60 74 12 29.41" 0 0 75 115
Snyder 3SSW  07:15 PM 86 35 16% W1316 38 mph 248° @ 0157 PM 90 61 71 14 29.42" 0 0 71 33
Spur 1W  07:15 PM 79 33 19% N1116 34 mph 308° @ 0645 PM 90 60 69 10 29.41" 0 0 47  
St. Lawrence 5SW  07:15 PM 91 21 8% W2024 43 mph 243° @ 0300 PM 94 62 64 6 29.44" 0 0 136 230
Stamford 5ESE  07:15 PM 92 33 12% SW1719 39 mph 266° @ 0523 PM 98 68 58 11 29.36" 0 0 56 160
Sterling City 4WSW  07:15 PM 92 22 8% SW1316 33 mph 249° @ 0347 PM 96 64 64 8 29.43" 0 0 120 6
Stinnett 1NNW  07:15 PM 56 47 71% NE1620 26 mph 37° @ 0601 PM 66 51 76 30 29.52" 0 0 48  
Sundown 8WSW  07:15 PM 80 28 15% W1824 33 mph 312° @ 0405 PM 85 52 44 13 29.48" 0 0 196 10
Sweetwater 11SW   07:15 PM 89 35 15% W1113 36 mph 239° @ 0315 PM 94 64 63 12 29.44" 0 0 146 75
Tahoka 3NNE  07:15 PM 82 28 14% W2126 43 mph 238° @ 0402 PM 87 58 64 13 29.45" 0 0 139 302
Tarzan 2WNW  07:15 PM 84 36 18% W1012 43 mph 248° @ 1016 AM 90 58 71 13 29.46" 0 0 99 151
Tatum NM 2SW  07:15 PM 78 25 15% W1823 41 mph 266° @ 0600 PM 83 59 24 13 29.51" 0 0 185 275
Throckmorton 1SW  07:15 PM 88 43 21% SW911 36 mph 253° @ 1150 AM 96 66 60 14 29.35" 0 0 52  
Tulia 2ENE  07:15 PM 74 37 26% W1828 41 mph 271° @ 0620 PM 78 63 28 20 29.47" 0 0 207  
Turkey 2WSW  07:15 PM 74 42 32% N45 33 mph 202° @ 0120 AM 83 63 58 16 29.42" 0 0 59  
Umbarger 3NNE  07:15 PM 73 36 26% W2733 43 mph 263° @ 0452 PM 75 58 41 20 29.47" 0 0 200  
Vigo Park  07:15 PM 73 39 29% W1825 35 mph 266° @ 0635 PM 78 56 38 21 29.48" 0 0 207  
Wall 2E  07:15 PM 93 33 12% SW2024 40 mph 182° @ 1253 AM 95 67 64 11 29.43" 0 0 156 8
Weinert 2NNE  07:15 PM 90 37 15% SW1013 35 mph 251° @ 0442 PM 95 64 64 13 29.35" 0 0 71 53
Welch  07:15 PM 84 29 14% W1822 47 mph 259° @ 0437 PM 90 58 66 13 29.47" 0 0 162 413
White River Lake 6NW  07:10 PM 79 35 21% NW811 39 mph 270° @ 0600 PM 89 61 62 11 29.43" 0 0 57 45
Wolfforth 6SSW  07:15 PM 81 28 14% W1520 35 mph 238° @ 1140 AM 89 55 66 10 29.47" 0 0 171 195

West Texas Mesonet Home   Site Map/Menu  NWS Lubbock Soil Data  Daily Summary Page  24hr Precip  72hr Precip  Google Plot